Архив погоды в Балашове

Метеограмма Балашов
Суббота, 24 Июня
Время местн. Темп Ветер Видим Явления Облачность нижн/средн/верх Атм. давл. Влжн Точка росы ВНГО R Сост. почвы Tg s
Напр Скр Прв ур.ст ур.м изм
18:00 +17.4° С 4 - 20 км - ясно 740 754 +1.2 59% +9.2° 1.5 км - - - -
15:00 +16.3° С 5 16 20 км облака рассеиваются {ливневые осадки} переменная облачность 739 753 +0.6 70% +10.9° 1 км - - - -
12:00 +13.6° С 4 - 20 км небо без изменений {ливневые осадки} облачно 739 753 +0.2 94% +12.7° 600 м - - - -
09:00 +12.4° В,Ю-В 2 - 4 км слабый ливневый дождь облачно 738 753 -1.5 97% +11.9° 600 м - - - -
06:00 +12.2° В,Ю-В 2 - 10 км слабый ливневый дождь облачно 740 754 -0.9 93% +11.1° 300 м - Влажная (без луж) - -
03:00 +13.1° В,С-В 4 - 10 км слабый ливневый дождь облачно 741 755 -1 83% +10.2° 600 м - - - -
00:00 +15.8° В 2 - 20 км - облачно 742 756 -0.3 65% +9.2° 1 км - - - -
Пятница, 23 Июня
Время местн. Темп Ветер Видим Явления Облачность нижн/средн/верх Атм. давл. Влжн Точка росы ВНГО R Сост. почвы Tg s
Напр Скр Прв ур.ст ур.м изм
21:00 +17.6° В 2 - 20 км - преимущественно облачно 742 756 0 55% +8.5° 1 км - - - -
18:00 +21.6° З 3 - 20 км - преимущественно облачно 742 756 -0.7 35% +5.6° 1 км - - - -
15:00 +21.9° З 4 - 20 км - преимущественно облачно 743 757 -0.8 34% +5.5° 1.5 км - - - -
12:00 +21.2° З 4 - 20 км - облачно с прояснениями 744 757 -0.5 34% +4.6° 1 км - - - -
09:00 +18° З 3 - 20 км - преимущественно облачно 744 758 +0.3 46% +6.2° - - - - -
06:00 +10.5° Ю-З 1 - 20 км - облачно с прояснениями 744 758 +0.2 79% +7.1° более 2.5 км - Сухая (без трещин) - -
03:00 +7° Ю 2 - 20 км - переменная облачность 744 758 -0.7 80% +3.8° более 2.5 км - - - -
00:00 +12.1° З 2 - 20 км - ясно 744 759 +0.8 68% +6.4° более 2.5 км - - - -
Четверг, 22 Июня
Время местн. Темп Ветер Видим Явления Облачность нижн/средн/верх Атм. давл. Влжн Точка росы ВНГО R Сост. почвы Tg s
Напр Скр Прв ур.ст ур.м изм
21:00 +16° С-З 4 - 20 км - ясно 744 758 +1.4 54% +6.8° более 2.5 км - - - -
18:00 +19.7° З 6 12 20 км - переменная облачность 742 756 +0.5 28% +0.9° 1.5 км 0 - - -
15:00 +20.8° З 7 11 20 км - переменная облачность 742 756 +0.2 70% +15.1° 1.5 км - - - -
12:00 +20.1° З,С-З 5 - 20 км - облачно 742 755 +0.2 39% +5.6° 1 км - - - -
09:00 +18.4° З 5 - 20 км - ясно 741 755 +0.9 46% +6.5° более 2.5 км - - - -
06:00 +11.4° З,С-З 1 - 20 км - ясно 741 755 +0.8 91% +10° более 2.5 км - Сухая (без трещин) - -
03:00 +12.2° С 1 - 20 км - переменная облачность 740 754 +0.2 75% +8° - - - - -
00:00 +16° С 2 - 20 км - переменная облачность 740 753 +1 72% +11° более 2.5 км - - - -
Среда, 21 Июня
Время местн. Темп Ветер Видим Явления Облачность нижн/средн/верх Атм. давл. Влжн Точка росы ВНГО R Сост. почвы Tg s
Напр Скр Прв ур.ст ур.м изм
21:00 +19.3° Ю-З 1 - 20 км - облачно с прояснениями 739 752 +0.7 65% +12.5° 1.5 км - - - -
18:00 +26° С 6 11 20 км - преимущественно облачно 738 751 0 45% +13° 1 км - - - -
15:00 +26.1° С-З 4 10 20 км - преимущественно облачно 738 751 -0.5 40% +11.5° 1 км - - - -